sensor_id;sensor_type;location;lat;lon;timestamp;P1;durP1;ratioP1;P2;durP2;ratioP2
4051;SDS011;2040;50.924;11.604;2023-04-03T00:00:09;3.70;;;0.80;;
4051;SDS011;2040;50.924;11.604;2023-04-03T00:02:35;4.97;;;1.40;;
4051;SDS011;2040;50.924;11.604;2023-04-03T00:05:01;1.03;;;0.93;;
4051;SDS011;2040;50.924;11.604;2023-04-03T00:07:26;0.73;;;0.70;;
4051;SDS011;2040;50.924;11.604;2023-04-03T00:09:52;1.20;;;1.10;;
4051;SDS011;2040;50.924;11.604;2023-04-03T00:12:18;1.10;;;1.00;;
4051;SDS011;2040;50.924;11.604;2023-04-03T00:14:43;0.87;;;0.73;;
4051;SDS011;2040;50.924;11.604;2023-04-03T00:17:09;2.97;;;1.00;;
4051;SDS011;2040;50.924;11.604;2023-04-03T00:19:34;2.10;;;1.47;;
4051;SDS011;2040;50.924;11.604;2023-04-03T00:22:00;5.07;;;1.40;;
4051;SDS011;2040;50.924;11.604;2023-04-03T00:24:25;1.93;;;1.20;;
4051;SDS011;2040;50.924;11.604;2023-04-03T00:26:51;1.37;;;1.10;;
4051;SDS011;2040;50.924;11.604;2023-04-03T00:29:16;11.10;;;1.13;;
4051;SDS011;2040;50.924;11.604;2023-04-03T00:31:42;5.20;;;1.43;;
4051;SDS011;2040;50.924;11.604;2023-04-03T00:34:08;2.93;;;1.00;;
4051;SDS011;2040;50.924;11.604;2023-04-03T00:36:33;0.80;;;0.70;;
4051;SDS011;2040;50.924;11.604;2023-04-03T00:38:59;1.00;;;0.90;;
4051;SDS011;2040;50.924;11.604;2023-04-03T00:41:24;1.13;;;1.00;;
4051;SDS011;2040;50.924;11.604;2023-04-03T00:43:50;4.97;;;1.40;;
4051;SDS011;2040;50.924;11.604;2023-04-03T00:46:16;2.23;;;1.20;;
4051;SDS011;2040;50.924;11.604;2023-04-03T00:48:43;6.43;;;1.77;;
4051;SDS011;2040;50.924;11.604;2023-04-03T00:51:11;0.83;;;0.83;;
4051;SDS011;2040;50.924;11.604;2023-04-03T00:54:00;2.23;;;1.20;;
4051;SDS011;2040;50.924;11.604;2023-04-03T00:56:27;2.23;;;1.07;;
4051;SDS011;2040;50.924;11.604;2023-04-03T00:58:57;2.70;;;1.00;;
4051;SDS011;2040;50.924;11.604;2023-04-03T01:01:27;3.80;;;1.37;;
4051;SDS011;2040;50.924;11.604;2023-04-03T01:03:53;4.93;;;1.97;;
4051;SDS011;2040;50.924;11.604;2023-04-03T01:06:21;5.03;;;2.13;;
4051;SDS011;2040;50.924;11.604;2023-04-03T01:08:51;3.80;;;1.43;;
4051;SDS011;2040;50.924;11.604;2023-04-03T01:11:17;5.23;;;1.63;;
4051;SDS011;2040;50.924;11.604;2023-04-03T01:13:43;4.33;;;1.30;;
4051;SDS011;2040;50.924;11.604;2023-04-03T01:16:08;3.33;;;2.00;;
4051;SDS011;2040;50.924;11.604;2023-04-03T01:18:35;3.03;;;2.00;;
4051;SDS011;2040;50.924;11.604;2023-04-03T01:21:10;6.37;;;2.10;;
4051;SDS011;2040;50.924;11.604;2023-04-03T01:26:49;2.43;;;1.37;;
4051;SDS011;2040;50.924;11.604;2023-04-03T01:29:15;4.53;;;1.83;;
4051;SDS011;2040;50.924;11.604;2023-04-03T01:34:09;4.07;;;1.80;;
4051;SDS011;2040;50.924;11.604;2023-04-03T01:36:35;7.33;;;2.03;;
4051;SDS011;2040;50.924;11.604;2023-04-03T01:39:00;1.33;;;1.23;;
4051;SDS011;2040;50.924;11.604;2023-04-03T01:41:26;2.13;;;1.40;;
4051;SDS011;2040;50.924;11.604;2023-04-03T01:43:52;2.33;;;1.80;;
4051;SDS011;2040;50.924;11.604;2023-04-03T01:46:18;3.43;;;2.10;;
4051;SDS011;2040;50.924;11.604;2023-04-03T01:48:45;1.80;;;1.50;;
4051;SDS011;2040;50.924;11.604;2023-04-03T01:51:11;3.97;;;2.10;;
4051;SDS011;2040;50.924;11.604;2023-04-03T01:53:37;8.67;;;2.03;;
4051;SDS011;2040;50.924;11.604;2023-04-03T01:56:03;3.53;;;1.77;;
4051;SDS011;2040;50.924;11.604;2023-04-03T01:58:28;8.07;;;1.53;;
4051;SDS011;2040;50.924;11.604;2023-04-03T02:00:54;7.30;;;1.70;;
4051;SDS011;2040;50.924;11.604;2023-04-03T02:03:20;5.70;;;1.67;;
4051;SDS011;2040;50.924;11.604;2023-04-03T02:05:46;9.30;;;1.83;;
4051;SDS011;2040;50.924;11.604;2023-04-03T02:08:12;3.53;;;1.30;;
4051;SDS011;2040;50.924;11.604;2023-04-03T02:10:38;2.53;;;1.50;;
4051;SDS011;2040;50.924;11.604;2023-04-03T02:13:03;5.30;;;1.50;;
4051;SDS011;2040;50.924;11.604;2023-04-03T02:15:29;2.90;;;1.30;;
4051;SDS011;2040;50.924;11.604;2023-04-03T02:17:54;9.93;;;2.03;;
4051;SDS011;2040;50.924;11.604;2023-04-03T02:20:20;1.40;;;1.30;;
4051;SDS011;2040;50.924;11.604;2023-04-03T02:22:46;7.00;;;1.20;;
4051;SDS011;2040;50.924;11.604;2023-04-03T02:25:11;4.53;;;1.40;;
4051;SDS011;2040;50.924;11.604;2023-04-03T02:27:37;3.37;;;1.50;;
4051;SDS011;2040;50.924;11.604;2023-04-03T02:30:03;2.73;;;1.00;;
4051;SDS011;2040;50.924;11.604;2023-04-03T02:32:30;1.47;;;1.10;;
4051;SDS011;2040;50.924;11.604;2023-04-03T02:34:56;6.10;;;1.33;;
4051;SDS011;2040;50.924;11.604;2023-04-03T02:37:21;8.20;;;1.27;;
4051;SDS011;2040;50.924;11.604;2023-04-03T02:39:47;1.13;;;1.03;;
4051;SDS011;2040;50.924;11.604;2023-04-03T02:42:13;2.13;;;1.20;;
4051;SDS011;2040;50.924;11.604;2023-04-03T02:44:38;4.07;;;1.37;;
4051;SDS011;2040;50.924;11.604;2023-04-03T02:47:04;9.63;;;1.87;;
4051;SDS011;2040;50.924;11.604;2023-04-03T02:49:30;4.60;;;1.50;;
4051;SDS011;2040;50.924;11.604;2023-04-03T02:51:56;1.60;;;1.30;;
4051;SDS011;2040;50.924;11.604;2023-04-03T02:54:21;2.20;;;1.30;;
4051;SDS011;2040;50.924;11.604;2023-04-03T02:56:48;2.23;;;1.57;;
4051;SDS011;2040;50.924;11.604;2023-04-03T02:59:15;2.83;;;1.47;;
4051;SDS011;2040;50.924;11.604;2023-04-03T03:01:40;21.53;;;2.30;;
4051;SDS011;2040;50.924;11.604;2023-04-03T03:04:06;4.83;;;2.50;;
4051;SDS011;2040;50.924;11.604;2023-04-03T03:06:31;4.73;;;1.90;;
4051;SDS011;2040;50.924;11.604;2023-04-03T03:08:57;17.33;;;2.20;;
4051;SDS011;2040;50.924;11.604;2023-04-03T03:11:23;3.93;;;1.93;;
4051;SDS011;2040;50.924;11.604;2023-04-03T03:13:48;5.30;;;2.00;;
4051;SDS011;2040;50.924;11.604;2023-04-03T03:16:14;12.20;;;2.97;;
4051;SDS011;2040;50.924;11.604;2023-04-03T03:18:40;4.30;;;2.27;;
4051;SDS011;2040;50.924;11.604;2023-04-03T03:21:05;4.57;;;1.63;;
4051;SDS011;2040;50.924;11.604;2023-04-03T03:23:31;11.53;;;2.00;;
4051;SDS011;2040;50.924;11.604;2023-04-03T03:25:58;12.00;;;2.43;;
4051;SDS011;2040;50.924;11.604;2023-04-03T03:28:25;6.20;;;2.00;;
4051;SDS011;2040;50.924;11.604;2023-04-03T03:30:51;1.63;;;1.50;;
4051;SDS011;2040;50.924;11.604;2023-04-03T03:33:17;3.70;;;1.73;;
4051;SDS011;2040;50.924;11.604;2023-04-03T03:35:43;12.73;;;2.17;;
4051;SDS011;2040;50.924;11.604;2023-04-03T03:38:09;14.47;;;2.40;;
4051;SDS011;2040;50.924;11.604;2023-04-03T03:40:35;10.60;;;2.60;;
4051;SDS011;2040;50.924;11.604;2023-04-03T03:43:00;2.07;;;1.43;;
4051;SDS011;2040;50.924;11.604;2023-04-03T03:45:26;5.50;;;2.03;;
4051;SDS011;2040;50.924;11.604;2023-04-03T03:47:52;5.10;;;1.60;;
4051;SDS011;2040;50.924;11.604;2023-04-03T03:50:17;2.20;;;1.50;;
4051;SDS011;2040;50.924;11.604;2023-04-03T03:52:43;6.30;;;2.53;;
4051;SDS011;2040;50.924;11.604;2023-04-03T03:55:09;5.23;;;2.17;;
4051;SDS011;2040;50.924;11.604;2023-04-03T03:57:35;4.13;;;2.03;;
4051;SDS011;2040;50.924;11.604;2023-04-03T04:00:00;5.87;;;1.40;;
4051;SDS011;2040;50.924;11.604;2023-04-03T04:02:26;4.40;;;2.00;;
4051;SDS011;2040;50.924;11.604;2023-04-03T04:04:52;6.13;;;1.30;;
4051;SDS011;2040;50.924;11.604;2023-04-03T04:07:17;1.50;;;1.40;;
4051;SDS011;2040;50.924;11.604;2023-04-03T04:09:43;1.47;;;1.03;;
4051;SDS011;2040;50.924;11.604;2023-04-03T04:12:08;4.70;;;1.80;;
4051;SDS011;2040;50.924;11.604;2023-04-03T04:14:34;5.87;;;1.60;;
4051;SDS011;2040;50.924;11.604;2023-04-03T04:16:59;1.53;;;1.10;;
4051;SDS011;2040;50.924;11.604;2023-04-03T04:19:27;4.97;;;1.90;;
4051;SDS011;2040;50.924;11.604;2023-04-03T04:21:52;2.37;;;1.40;;
4051;SDS011;2040;50.924;11.604;2023-04-03T04:24:18;2.20;;;1.30;;
4051;SDS011;2040;50.924;11.604;2023-04-03T04:26:44;4.10;;;1.80;;
4051;SDS011;2040;50.924;11.604;2023-04-03T04:29:09;4.33;;;1.63;;
4051;SDS011;2040;50.924;11.604;2023-04-03T04:31:35;2.73;;;1.40;;
4051;SDS011;2040;50.924;11.604;2023-04-03T04:34:01;4.40;;;1.83;;
4051;SDS011;2040;50.924;11.604;2023-04-03T04:36:26;2.80;;;1.53;;
4051;SDS011;2040;50.924;11.604;2023-04-03T04:38:52;8.13;;;1.23;;
4051;SDS011;2040;50.924;11.604;2023-04-03T04:41:19;7.47;;;1.60;;
4051;SDS011;2040;50.924;11.604;2023-04-03T04:43:47;4.33;;;1.83;;
4051;SDS011;2040;50.924;11.604;2023-04-03T04:46:16;5.60;;;1.57;;
4051;SDS011;2040;50.924;11.604;2023-04-03T04:48:43;6.23;;;2.10;;
4051;SDS011;2040;50.924;11.604;2023-04-03T04:51:09;8.13;;;2.30;;
4051;SDS011;2040;50.924;11.604;2023-04-03T04:53:34;3.30;;;1.33;;
4051;SDS011;2040;50.924;11.604;2023-04-03T04:56:00;1.90;;;1.80;;
4051;SDS011;2040;50.924;11.604;2023-04-03T04:58:26;4.83;;;1.20;;
4051;SDS011;2040;50.924;11.604;2023-04-03T05:00:58;6.80;;;2.27;;
4051;SDS011;2040;50.924;11.604;2023-04-03T05:03:25;2.53;;;1.80;;
4051;SDS011;2040;50.924;11.604;2023-04-03T05:05:50;4.40;;;2.20;;
4051;SDS011;2040;50.924;11.604;2023-04-03T05:08:16;3.43;;;1.60;;
4051;SDS011;2040;50.924;11.604;2023-04-03T05:10:41;8.23;;;2.43;;
4051;SDS011;2040;50.924;11.604;2023-04-03T05:13:07;4.13;;;2.70;;
4051;SDS011;2040;50.924;11.604;2023-04-03T05:15:33;1.50;;;1.20;;
4051;SDS011;2040;50.924;11.604;2023-04-03T05:17:59;2.60;;;1.80;;
4051;SDS011;2040;50.924;11.604;2023-04-03T05:20:24;2.23;;;1.60;;
4051;SDS011;2040;50.924;11.604;2023-04-03T05:22:50;4.00;;;2.00;;
4051;SDS011;2040;50.924;11.604;2023-04-03T05:25:16;2.67;;;1.87;;
4051;SDS011;2040;50.924;11.604;2023-04-03T05:27:41;3.93;;;1.70;;
4051;SDS011;2040;50.924;11.604;2023-04-03T05:30:07;3.87;;;1.50;;
4051;SDS011;2040;50.924;11.604;2023-04-03T05:32:33;14.63;;;3.20;;
4051;SDS011;2040;50.924;11.604;2023-04-03T05:34:59;6.80;;;2.60;;
4051;SDS011;2040;50.924;11.604;2023-04-03T05:37:24;5.13;;;1.50;;
4051;SDS011;2040;50.924;11.604;2023-04-03T05:39:50;7.23;;;1.80;;
4051;SDS011;2040;50.924;11.604;2023-04-03T05:42:15;2.53;;;1.90;;
4051;SDS011;2040;50.924;11.604;2023-04-03T05:44:42;5.20;;;2.70;;
4051;SDS011;2040;50.924;11.604;2023-04-03T05:47:09;8.63;;;2.67;;
4051;SDS011;2040;50.924;11.604;2023-04-03T05:49:34;2.27;;;1.73;;
4051;SDS011;2040;50.924;11.604;2023-04-03T05:52:00;4.97;;;1.80;;
4051;SDS011;2040;50.924;11.604;2023-04-03T05:54:27;3.20;;;1.77;;
4051;SDS011;2040;50.924;11.604;2023-04-03T05:56:54;2.40;;;1.50;;
4051;SDS011;2040;50.924;11.604;2023-04-03T05:59:20;2.23;;;1.87;;
4051;SDS011;2040;50.924;11.604;2023-04-03T06:01:46;3.13;;;1.40;;
4051;SDS011;2040;50.924;11.604;2023-04-03T06:04:12;2.80;;;1.60;;
4051;SDS011;2040;50.924;11.604;2023-04-03T06:06:45;7.10;;;1.90;;
4051;SDS011;2040;50.924;11.604;2023-04-03T06:09:19;3.13;;;1.53;;
4051;SDS011;2040;50.924;11.604;2023-04-03T06:11:46;1.70;;;1.60;;
4051;SDS011;2040;50.924;11.604;2023-04-03T06:14:12;1.90;;;1.67;;
4051;SDS011;2040;50.924;11.604;2023-04-03T06:16:37;3.37;;;2.10;;
4051;SDS011;2040;50.924;11.604;2023-04-03T06:19:04;3.70;;;2.60;;
4051;SDS011;2040;50.924;11.604;2023-04-03T06:21:30;3.97;;;1.80;;
4051;SDS011;2040;50.924;11.604;2023-04-03T06:23:56;4.40;;;1.90;;
4051;SDS011;2040;50.924;11.604;2023-04-03T06:26:22;6.43;;;1.40;;
4051;SDS011;2040;50.924;11.604;2023-04-03T06:28:48;3.00;;;1.93;;
4051;SDS011;2040;50.924;11.604;2023-04-03T06:31:14;2.30;;;1.53;;
4051;SDS011;2040;50.924;11.604;2023-04-03T06:33:39;4.17;;;1.67;;
4051;SDS011;2040;50.924;11.604;2023-04-03T06:36:05;2.87;;;1.13;;
4051;SDS011;2040;50.924;11.604;2023-04-03T06:38:33;1.50;;;1.10;;
4051;SDS011;2040;50.924;11.604;2023-04-03T06:40:59;2.33;;;1.20;;
4051;SDS011;2040;50.924;11.604;2023-04-03T06:43:25;2.60;;;1.00;;
4051;SDS011;2040;50.924;11.604;2023-04-03T06:45:51;1.53;;;1.10;;
4051;SDS011;2040;50.924;11.604;2023-04-03T06:48:17;2.90;;;1.70;;
4051;SDS011;2040;50.924;11.604;2023-04-03T06:50:42;2.30;;;0.97;;
4051;SDS011;2040;50.924;11.604;2023-04-03T06:53:08;4.27;;;1.47;;
4051;SDS011;2040;50.924;11.604;2023-04-03T06:55:36;3.13;;;1.60;;
4051;SDS011;2040;50.924;11.604;2023-04-03T06:58:01;5.30;;;1.73;;
4051;SDS011;2040;50.924;11.604;2023-04-03T07:00:28;4.37;;;1.40;;
4051;SDS011;2040;50.924;11.604;2023-04-03T07:02:55;3.10;;;2.17;;
4051;SDS011;2040;50.924;11.604;2023-04-03T07:05:22;1.33;;;1.17;;
4051;SDS011;2040;50.924;11.604;2023-04-03T07:07:48;3.20;;;1.20;;
4051;SDS011;2040;50.924;11.604;2023-04-03T07:10:15;2.73;;;1.60;;
4051;SDS011;2040;50.924;11.604;2023-04-03T07:12:41;2.20;;;1.60;;
4051;SDS011;2040;50.924;11.604;2023-04-03T07:15:06;2.20;;;1.40;;
4051;SDS011;2040;50.924;11.604;2023-04-03T07:17:33;3.23;;;1.77;;
4051;SDS011;2040;50.924;11.604;2023-04-03T07:19:58;3.50;;;1.50;;
4051;SDS011;2040;50.924;11.604;2023-04-03T07:22:24;5.47;;;2.07;;
4051;SDS011;2040;50.924;11.604;2023-04-03T07:24:50;3.07;;;1.60;;
4051;SDS011;2040;50.924;11.604;2023-04-03T07:27:15;3.53;;;1.80;;
4051;SDS011;2040;50.924;11.604;2023-04-03T07:29:42;4.30;;;2.20;;
4051;SDS011;2040;50.924;11.604;2023-04-03T07:32:09;4.07;;;2.13;;
4051;SDS011;2040;50.924;11.604;2023-04-03T07:34:34;6.43;;;2.03;;
4051;SDS011;2040;50.924;11.604;2023-04-03T07:37:00;5.03;;;2.87;;
4051;SDS011;2040;50.924;11.604;2023-04-03T07:39:27;4.90;;;2.60;;
4051;SDS011;2040;50.924;11.604;2023-04-03T07:41:53;4.90;;;2.90;;
4051;SDS011;2040;50.924;11.604;2023-04-03T07:44:21;6.33;;;3.10;;
4051;SDS011;2040;50.924;11.604;2023-04-03T07:46:46;10.87;;;3.10;;
4051;SDS011;2040;50.924;11.604;2023-04-03T07:49:13;5.90;;;3.10;;
4051;SDS011;2040;50.924;11.604;2023-04-03T07:51:39;6.40;;;3.53;;
4051;SDS011;2040;50.924;11.604;2023-04-03T07:54:05;5.20;;;2.80;;
4051;SDS011;2040;50.924;11.604;2023-04-03T07:56:31;7.23;;;3.37;;
4051;SDS011;2040;50.924;11.604;2023-04-03T07:58:57;13.33;;;3.80;;
4051;SDS011;2040;50.924;11.604;2023-04-03T08:01:22;4.17;;;2.50;;
4051;SDS011;2040;50.924;11.604;2023-04-03T08:03:48;3.30;;;2.57;;
4051;SDS011;2040;50.924;11.604;2023-04-03T08:06:13;7.07;;;2.70;;
4051;SDS011;2040;50.924;11.604;2023-04-03T08:08:40;6.00;;;3.10;;
4051;SDS011;2040;50.924;11.604;2023-04-03T08:11:06;4.10;;;2.37;;
4051;SDS011;2040;50.924;11.604;2023-04-03T08:13:33;4.00;;;2.50;;
4051;SDS011;2040;50.924;11.604;2023-04-03T08:16:07;4.30;;;2.53;;
4051;SDS011;2040;50.924;11.604;2023-04-03T08:18:41;1.87;;;1.77;;
4051;SDS011;2040;50.924;11.604;2023-04-03T08:21:08;3.17;;;1.50;;
4051;SDS011;2040;50.924;11.604;2023-04-03T08:23:34;1.47;;;1.37;;
4051;SDS011;2040;50.924;11.604;2023-04-03T08:26:11;5.50;;;2.43;;
4051;SDS011;2040;50.924;11.604;2023-04-03T08:28:39;3.90;;;1.53;;
4051;SDS011;2040;50.924;11.604;2023-04-03T08:31:06;8.10;;;2.00;;
4051;SDS011;2040;50.924;11.604;2023-04-03T08:33:33;3.97;;;1.40;;
4051;SDS011;2040;50.924;11.604;2023-04-03T08:36:01;1.80;;;1.37;;
4051;SDS011;2040;50.924;11.604;2023-04-03T08:38:27;7.30;;;1.40;;
4051;SDS011;2040;50.924;11.604;2023-04-03T08:43:53;1.93;;;1.50;;
4051;SDS011;2040;50.924;11.604;2023-04-03T08:46:26;4.87;;;1.87;;
4051;SDS011;2040;50.924;11.604;2023-04-03T08:49:07;4.27;;;2.00;;
4051;SDS011;2040;50.924;11.604;2023-04-03T08:51:39;2.10;;;1.43;;
4051;SDS011;2040;50.924;11.604;2023-04-03T08:54:16;2.40;;;1.40;;
4051;SDS011;2040;50.924;11.604;2023-04-03T08:57:10;2.73;;;1.40;;
4051;SDS011;2040;50.924;11.604;2023-04-03T08:59:37;1.60;;;1.50;;
4051;SDS011;2040;50.924;11.604;2023-04-03T09:02:10;3.07;;;1.30;;
4051;SDS011;2040;50.924;11.604;2023-04-03T09:04:51;4.13;;;1.80;;
4051;SDS011;2040;50.924;11.604;2023-04-03T09:07:20;4.90;;;1.77;;
4051;SDS011;2040;50.924;11.604;2023-04-03T09:09:54;2.63;;;1.53;;
4051;SDS011;2040;50.924;11.604;2023-04-03T09:12:27;2.50;;;1.37;;
4051;SDS011;2040;50.924;11.604;2023-04-03T09:15:05;1.60;;;1.50;;
4051;SDS011;2040;50.924;11.604;2023-04-03T09:22:45;1.63;;;1.50;;
4051;SDS011;2040;50.924;11.604;2023-04-03T09:25:18;1.30;;;1.20;;
4051;SDS011;2040;50.924;11.604;2023-04-03T09:27:58;6.40;;;1.60;;
4051;SDS011;2040;50.924;11.604;2023-04-03T09:30:25;4.30;;;2.00;;
4051;SDS011;2040;50.924;11.604;2023-04-03T09:32:52;7.13;;;1.50;;
4051;SDS011;2040;50.924;11.604;2023-04-03T09:37:53;2.30;;;1.20;;
4051;SDS011;2040;50.924;11.604;2023-04-03T09:42:51;3.43;;;0.97;;
4051;SDS011;2040;50.924;11.604;2023-04-03T09:45:37;1.33;;;1.23;;
4051;SDS011;2040;50.924;11.604;2023-04-03T09:50:37;5.47;;;1.10;;
4051;SDS011;2040;50.924;11.604;2023-04-03T09:53:05;2.57;;;1.17;;
4051;SDS011;2040;50.924;11.604;2023-04-03T09:55:33;8.13;;;1.80;;
4051;SDS011;2040;50.924;11.604;2023-04-03T09:58:22;2.53;;;1.10;;
4051;SDS011;2040;50.924;11.604;2023-04-03T10:01:20;0.70;;;0.70;;
4051;SDS011;2040;50.924;11.604;2023-04-03T10:04:05;1.37;;;1.10;;
4051;SDS011;2040;50.924;11.604;2023-04-03T10:06:31;2.23;;;1.00;;
4051;SDS011;2040;50.924;11.604;2023-04-03T10:09:04;0.60;;;0.60;;
4051;SDS011;2040;50.924;11.604;2023-04-03T10:11:39;0.83;;;0.80;;
4051;SDS011;2040;50.924;11.604;2023-04-03T10:14:28;1.03;;;0.80;;
4051;SDS011;2040;50.924;11.604;2023-04-03T10:16:57;0.60;;;0.60;;
4051;SDS011;2040;50.924;11.604;2023-04-03T10:24:51;2.60;;;0.70;;
4051;SDS011;2040;50.924;11.604;2023-04-03T10:30:45;3.13;;;0.80;;
4051;SDS011;2040;50.924;11.604;2023-04-03T10:38:33;0.70;;;0.70;;
4051;SDS011;2040;50.924;11.604;2023-04-03T10:41:27;1.30;;;0.90;;
4051;SDS011;2040;50.924;11.604;2023-04-03T10:46:52;2.93;;;1.00;;
4051;SDS011;2040;50.924;11.604;2023-04-03T10:55:09;4.50;;;1.63;;
4051;SDS011;2040;50.924;11.604;2023-04-03T10:57:38;3.50;;;0.80;;
4051;SDS011;2040;50.924;11.604;2023-04-03T11:00:07;2.50;;;1.00;;
4051;SDS011;2040;50.924;11.604;2023-04-03T11:02:52;3.87;;;1.00;;
4051;SDS011;2040;50.924;11.604;2023-04-03T11:05:31;2.93;;;1.23;;
4051;SDS011;2040;50.924;11.604;2023-04-03T11:08:05;2.47;;;2.03;;
4051;SDS011;2040;50.924;11.604;2023-04-03T11:10:42;2.47;;;1.57;;
4051;SDS011;2040;50.924;11.604;2023-04-03T11:13:14;8.10;;;1.40;;
4051;SDS011;2040;50.924;11.604;2023-04-03T11:15:43;3.20;;;1.10;;
4051;SDS011;2040;50.924;11.604;2023-04-03T11:18:11;3.63;;;1.23;;
4051;SDS011;2040;50.924;11.604;2023-04-03T11:20:42;2.70;;;1.30;;
4051;SDS011;2040;50.924;11.604;2023-04-03T11:23:23;2.60;;;1.50;;
4051;SDS011;2040;50.924;11.604;2023-04-03T11:25:51;2.37;;;1.60;;
4051;SDS011;2040;50.924;11.604;2023-04-03T11:28:31;3.73;;;1.90;;
4051;SDS011;2040;50.924;11.604;2023-04-03T11:37:28;8.93;;;1.37;;
4051;SDS011;2040;50.924;11.604;2023-04-03T11:39:29;2.30;;;1.20;;
4051;SDS011;2040;50.924;11.604;2023-04-03T11:44:51;3.30;;;1.17;;
4051;SDS011;2040;50.924;11.604;2023-04-03T11:47:54;4.30;;;1.23;;
4051;SDS011;2040;50.924;11.604;2023-04-03T11:58:20;2.90;;;1.10;;
4051;SDS011;2040;50.924;11.604;2023-04-03T12:16:22;0.70;;;0.70;;
4051;SDS011;2040;50.924;11.604;2023-04-03T12:26:27;1.93;;;0.97;;
4051;SDS011;2040;50.924;11.604;2023-04-03T12:29:17;0.83;;;0.83;;
4051;SDS011;2040;50.924;11.604;2023-04-03T12:34:49;1.10;;;0.80;;
4051;SDS011;2040;50.924;11.604;2023-04-03T12:37:47;1.83;;;0.93;;
4051;SDS011;2040;50.924;11.604;2023-04-03T12:43:17;1.67;;;0.93;;
4051;SDS011;2040;50.924;11.604;2023-04-03T12:45:50;1.57;;;1.00;;
4051;SDS011;2040;50.924;11.604;2023-04-03T12:48:24;3.80;;;1.03;;
4051;SDS011;2040;50.924;11.604;2023-04-03T12:50:52;2.97;;;1.03;;
4051;SDS011;2040;50.924;11.604;2023-04-03T12:53:33;1.23;;;1.00;;
4051;SDS011;2040;50.924;11.604;2023-04-03T12:56:21;3.13;;;1.10;;
4051;SDS011;2040;50.924;11.604;2023-04-03T12:58:51;1.80;;;1.20;;
4051;SDS011;2040;50.924;11.604;2023-04-03T13:01:25;0.80;;;0.80;;
4051;SDS011;2040;50.924;11.604;2023-04-03T13:03:55;0.90;;;0.90;;
4051;SDS011;2040;50.924;11.604;2023-04-03T13:08:55;2.27;;;0.97;;
4051;SDS011;2040;50.924;11.604;2023-04-03T13:11:23;4.23;;;0.97;;
4051;SDS011;2040;50.924;11.604;2023-04-03T13:14:00;5.27;;;1.10;;
4051;SDS011;2040;50.924;11.604;2023-04-03T13:16:28;5.07;;;1.33;;
4051;SDS011;2040;50.924;11.604;2023-04-03T13:18:54;2.07;;;1.40;;
4051;SDS011;2040;50.924;11.604;2023-04-03T13:21:27;3.60;;;1.27;;
4051;SDS011;2040;50.924;11.604;2023-04-03T13:23:56;1.03;;;0.87;;
4051;SDS011;2040;50.924;11.604;2023-04-03T13:26:28;3.40;;;1.63;;
4051;SDS011;2040;50.924;11.604;2023-04-03T13:28:56;1.03;;;0.90;;
4051;SDS011;2040;50.924;11.604;2023-04-03T13:31:37;2.27;;;1.00;;
4051;SDS011;2040;50.924;11.604;2023-04-03T13:41:46;2.07;;;1.17;;
4051;SDS011;2040;50.924;11.604;2023-04-03T13:49:43;5.10;;;1.47;;
4051;SDS011;2040;50.924;11.604;2023-04-03T13:54:59;2.50;;;1.00;;
4051;SDS011;2040;50.924;11.604;2023-04-03T13:57:26;2.43;;;1.30;;
4051;SDS011;2040;50.924;11.604;2023-04-03T13:59:52;1.80;;;1.23;;
4051;SDS011;2040;50.924;11.604;2023-04-03T14:02:20;4.20;;;1.90;;
4051;SDS011;2040;50.924;11.604;2023-04-03T14:04:55;3.13;;;1.17;;
4051;SDS011;2040;50.924;11.604;2023-04-03T14:07:25;2.30;;;1.30;;
4051;SDS011;2040;50.924;11.604;2023-04-03T14:09:51;6.37;;;1.40;;
4051;SDS011;2040;50.924;11.604;2023-04-03T14:14:50;2.40;;;1.70;;
4051;SDS011;2040;50.924;11.604;2023-04-03T14:17:17;4.43;;;2.50;;
4051;SDS011;2040;50.924;11.604;2023-04-03T14:19:45;9.33;;;3.23;;
4051;SDS011;2040;50.924;11.604;2023-04-03T14:22:16;4.50;;;2.83;;
4051;SDS011;2040;50.924;11.604;2023-04-03T14:24:44;4.93;;;1.30;;
4051;SDS011;2040;50.924;11.604;2023-04-03T14:27:22;3.70;;;1.70;;
4051;SDS011;2040;50.924;11.604;2023-04-03T14:29:53;4.40;;;1.63;;
4051;SDS011;2040;50.924;11.604;2023-04-03T14:32:21;2.40;;;1.00;;
4051;SDS011;2040;50.924;11.604;2023-04-03T14:34:49;1.70;;;1.60;;
4051;SDS011;2040;50.924;11.604;2023-04-03T14:37:17;1.97;;;1.43;;
4051;SDS011;2040;50.924;11.604;2023-04-03T14:39:46;3.10;;;1.57;;
4051;SDS011;2040;50.924;11.604;2023-04-03T14:42:13;1.63;;;1.50;;
4051;SDS011;2040;50.924;11.604;2023-04-03T14:44:43;1.20;;;1.10;;
4051;SDS011;2040;50.924;11.604;2023-04-03T14:47:13;3.93;;;1.60;;
4051;SDS011;2040;50.924;11.604;2023-04-03T14:49:41;2.30;;;1.30;;
4051;SDS011;2040;50.924;11.604;2023-04-03T14:52:14;1.23;;;1.00;;
4051;SDS011;2040;50.924;11.604;2023-04-03T14:54:43;1.40;;;1.07;;
4051;SDS011;2040;50.924;11.604;2023-04-03T14:57:09;6.07;;;1.10;;
4051;SDS011;2040;50.924;11.604;2023-04-03T14:59:39;2.03;;;1.17;;
4051;SDS011;2040;50.924;11.604;2023-04-03T15:02:24;1.40;;;1.20;;
4051;SDS011;2040;50.924;11.604;2023-04-03T15:04:50;1.37;;;0.93;;
4051;SDS011;2040;50.924;11.604;2023-04-03T15:07:15;2.50;;;1.50;;
4051;SDS011;2040;50.924;11.604;2023-04-03T15:09:41;2.40;;;1.07;;
4051;SDS011;2040;50.924;11.604;2023-04-03T15:12:07;4.00;;;0.93;;
4051;SDS011;2040;50.924;11.604;2023-04-03T15:14:34;1.67;;;1.57;;
4051;SDS011;2040;50.924;11.604;2023-04-03T15:16:59;3.97;;;1.40;;
4051;SDS011;2040;50.924;11.604;2023-04-03T15:19:25;3.37;;;1.30;;
4051;SDS011;2040;50.924;11.604;2023-04-03T15:21:51;1.30;;;1.10;;
4051;SDS011;2040;50.924;11.604;2023-04-03T15:24:17;4.70;;;1.37;;
4051;SDS011;2040;50.924;11.604;2023-04-03T15:26:42;5.37;;;2.20;;
4051;SDS011;2040;50.924;11.604;2023-04-03T15:29:08;1.63;;;1.10;;
4051;SDS011;2040;50.924;11.604;2023-04-03T15:31:34;10.20;;;3.57;;
4051;SDS011;2040;50.924;11.604;2023-04-03T15:33:59;4.97;;;1.37;;
4051;SDS011;2040;50.924;11.604;2023-04-03T15:36:25;0.90;;;0.90;;
4051;SDS011;2040;50.924;11.604;2023-04-03T15:38:50;4.63;;;1.80;;
4051;SDS011;2040;50.924;11.604;2023-04-03T15:41:16;2.47;;;1.43;;
4051;SDS011;2040;50.924;11.604;2023-04-03T15:43:42;2.20;;;1.20;;
4051;SDS011;2040;50.924;11.604;2023-04-03T15:46:08;2.07;;;1.70;;
4051;SDS011;2040;50.924;11.604;2023-04-03T15:48:34;3.17;;;1.83;;
4051;SDS011;2040;50.924;11.604;2023-04-03T15:51:00;1.93;;;1.20;;
4051;SDS011;2040;50.924;11.604;2023-04-03T15:53:26;5.10;;;1.90;;
4051;SDS011;2040;50.924;11.604;2023-04-03T15:55:51;2.43;;;1.20;;
4051;SDS011;2040;50.924;11.604;2023-04-03T15:58:17;1.87;;;1.10;;
4051;SDS011;2040;50.924;11.604;2023-04-03T16:00:43;1.63;;;1.23;;
4051;SDS011;2040;50.924;11.604;2023-04-03T16:03:15;2.87;;;1.00;;
4051;SDS011;2040;50.924;11.604;2023-04-03T16:05:42;1.43;;;1.27;;
4051;SDS011;2040;50.924;11.604;2023-04-03T16:08:07;3.83;;;1.57;;
4051;SDS011;2040;50.924;11.604;2023-04-03T16:10:37;1.33;;;1.10;;
4051;SDS011;2040;50.924;11.604;2023-04-03T16:13:04;1.13;;;0.90;;
4051;SDS011;2040;50.924;11.604;2023-04-03T16:15:30;1.40;;;1.00;;
4051;SDS011;2040;50.924;11.604;2023-04-03T16:17:57;1.73;;;1.47;;
4051;SDS011;2040;50.924;11.604;2023-04-03T16:20:24;3.03;;;1.50;;
4051;SDS011;2040;50.924;11.604;2023-04-03T16:22:51;4.80;;;2.60;;
4051;SDS011;2040;50.924;11.604;2023-04-03T16:25:17;2.37;;;1.77;;
4051;SDS011;2040;50.924;11.604;2023-04-03T16:27:43;3.00;;;1.57;;
4051;SDS011;2040;50.924;11.604;2023-04-03T16:30:09;4.63;;;1.23;;
4051;SDS011;2040;50.924;11.604;2023-04-03T16:32:35;1.63;;;1.53;;
4051;SDS011;2040;50.924;11.604;2023-04-03T16:35:03;5.37;;;1.57;;
4051;SDS011;2040;50.924;11.604;2023-04-03T16:37:29;5.80;;;2.50;;
4051;SDS011;2040;50.924;11.604;2023-04-03T16:39:55;4.97;;;1.40;;
4051;SDS011;2040;50.924;11.604;2023-04-03T16:42:20;1.90;;;1.17;;
4051;SDS011;2040;50.924;11.604;2023-04-03T16:44:46;1.20;;;1.10;;
4051;SDS011;2040;50.924;11.604;2023-04-03T16:47:12;2.40;;;1.50;;
4051;SDS011;2040;50.924;11.604;2023-04-03T16:49:38;2.70;;;1.53;;
4051;SDS011;2040;50.924;11.604;2023-04-03T16:52:04;5.90;;;1.67;;
4051;SDS011;2040;50.924;11.604;2023-04-03T16:54:30;3.03;;;1.37;;
4051;SDS011;2040;50.924;11.604;2023-04-03T16:56:57;1.50;;;1.40;;